Time;durP1;ratioP1;P1;durP2;ratioP2;P2;SDS_P1;SDS_P2;PMS_P1;PMS_P2;Temp;Humidity;BMP_temperature;BMP_pressure;BME280_temperature;BME280_humidity;BME280_pressure;Samples;Min_cycle;Max_cycle;Signal;HPM_P1;HPM_P2
2024/03/23 00:01:15;;;;;;;;;;;9.70;69.60;;;;;;5038913;28;82361;-47
2024/03/23 00:03:41;;;;;;;;;;;9.70;69.70;;;;;;5036430;28;82164;-47
2024/03/23 00:06:08;;;;;;;;;;;9.70;69.70;;;;;;5036933;28;82760;-47
2024/03/23 00:08:34;;;;;;;;;;;9.60;69.70;;;;;;5039666;27;82962;-46
2024/03/23 00:11:02;;;;;;;;;;;9.60;69.60;;;;;;5040678;27;81958;-46
2024/03/23 00:13:29;;;;;;;;;;;9.60;69.80;;;;;;5035444;27;83178;-47
2024/03/23 00:15:55;;;;;;;;;;;9.60;69.70;;;;;;5037422;27;81498;-47
2024/03/23 00:18:23;;;;;;;;;;;9.60;69.70;;;;;;5033333;27;82783;-46
2024/03/23 00:20:50;;;;;;;;;;;9.50;70.40;;;;;;5037302;28;83822;-47
2024/03/23 00:23:16;;;;;;;;;;;9.60;69.80;;;;;;5036785;27;82908;-47
2024/03/23 00:25:42;;;;;;;;;;;9.50;69.80;;;;;;5041445;28;82947;-47
2024/03/23 00:28:10;;;;;;;;;;;9.50;69.80;;;;;;5036718;28;82345;-47
2024/03/23 00:30:37;;;;;;;;;;;9.50;70.00;;;;;;5034756;28;81922;-48
2024/03/23 00:33:03;;;;;;;;;;;9.50;69.80;;;;;;5032219;28;82812;-48
2024/03/23 00:35:29;;;;;;;;;;;9.50;69.90;;;;;;5037128;28;81981;-46
2024/03/23 00:37:55;;;;;;;;;;;9.40;69.90;;;;;;5036783;28;81916;-47
2024/03/23 00:40:21;;;;;;;;;;;9.50;70.40;;;;;;5035854;28;81143;-48
2024/03/23 00:42:47;;;;;;;;;;;9.40;69.90;;;;;;5037210;28;82029;-48
2024/03/23 00:45:13;;;;;;;;;;;9.40;69.90;;;;;;5036021;28;81938;-47
2024/03/23 00:47:39;;;;;;;;;;;9.40;69.90;;;;;;5044974;27;82834;-48
2024/03/23 00:50:05;;;;;;;;;;;9.40;69.90;;;;;;5041509;27;82119;-47
2024/03/23 00:52:31;;;;;;;;;;;9.40;69.80;;;;;;5042821;28;82124;-48
2024/03/23 00:54:57;;;;;;;;;;;9.40;70.40;;;;;;5041346;28;81872;-48
2024/03/23 00:57:22;;;;;;;;;;;9.30;69.90;;;;;;5041983;28;82848;-47
2024/03/23 00:59:48;;;;;;;;;;;9.30;70.00;;;;;;5047085;27;82932;-47
2024/03/23 01:02:13;;;;;;;;;;;9.30;69.80;;;;;;5038572;28;82002;-49
2024/03/23 01:04:39;;;;;;;;;;;9.30;69.90;;;;;;5041493;28;81165;-47
2024/03/23 01:07:04;;;;;;;;;;;9.30;70.00;;;;;;5038988;28;83381;-47
2024/03/23 01:09:30;;;;;;;;;;;9.30;70.00;;;;;;5035244;28;82110;-47
2024/03/23 01:11:55;;;;;;;;;;;9.30;70.00;;;;;;5042235;27;82943;-47
2024/03/23 01:14:22;;;;;;;;;;;9.20;69.90;;;;;;5041020;28;83559;-47
2024/03/23 01:16:47;;;;;;;;;;;9.20;70.10;;;;;;5038525;28;83265;-48
2024/03/23 01:19:13;;;;;;;;;;;9.20;70.00;;;;;;5037546;28;81860;-47
2024/03/23 01:21:39;;;;;;;;;;;9.20;70.00;;;;;;5038372;28;81896;-48
2024/03/23 01:24:04;;;;;;;;;;;9.20;70.00;;;;;;5037753;28;81937;-47
2024/03/23 01:26:30;;;;;;;;;;;9.10;70.00;;;;;;5036830;28;82763;-47
2024/03/23 01:28:55;;;;;;;;;;;9.10;70.00;;;;;;5037783;28;81826;-48
2024/03/23 01:31:21;;;;;;;;;;;9.20;70.00;;;;;;5038873;28;82305;-46
2024/03/23 01:33:46;;;;;;;;;;;9.10;70.00;;;;;;5033739;28;82777;-48
2024/03/23 01:36:12;;;;;;;;;;;9.10;70.00;;;;;;5041515;28;83457;-47
2024/03/23 01:38:38;;;;;;;;;;;9.10;70.00;;;;;;5035986;28;82682;-47
2024/03/23 01:41:03;;;;;;;;;;;9.00;69.90;;;;;;5039003;28;82013;-47
2024/03/23 01:43:29;;;;;;;;;;;9.10;70.10;;;;;;5040568;28;82349;-46
2024/03/23 01:45:55;;;;;;;;;;;9.00;70.20;;;;;;5039960;28;81827;-47
2024/03/23 01:48:21;;;;;;;;;;;9.00;70.10;;;;;;5038449;28;81968;-46
2024/03/23 01:50:48;;;;;;;;;;;9.00;70.00;;;;;;5036051;28;83197;-46
2024/03/23 01:53:17;;;;;;;;;;;9.00;70.00;;;;;;5037844;28;83119;-47
2024/03/23 01:55:42;;;;;;;;;;;9.00;70.10;;;;;;5037627;28;82618;-48
2024/03/23 01:58:08;;;;;;;;;;;9.00;70.20;;;;;;5043706;28;81863;-48
2024/03/23 02:00:34;;;;;;;;;;;9.00;70.20;;;;;;5036749;28;82876;-47
2024/03/23 02:02:59;;;;;;;;;;;8.90;70.00;;;;;;5036856;27;82749;-46
2024/03/23 02:05:25;;;;;;;;;;;8.90;70.10;;;;;;5036167;28;82955;-48
2024/03/23 02:07:50;;;;;;;;;;;8.90;70.20;;;;;;5038887;28;81933;-46
2024/03/23 02:10:16;;;;;;;;;;;8.90;70.10;;;;;;5038886;28;82247;-48
2024/03/23 02:12:41;;;;;;;;;;;8.90;70.30;;;;;;5031462;28;82147;-46
2024/03/23 02:15:08;;;;;;;;;;;8.90;70.20;;;;;;5036257;28;82361;-46
2024/03/23 02:17:34;;;;;;;;;;;8.80;70.20;;;;;;5043761;28;81714;-47
2024/03/23 02:20:00;;;;;;;;;;;8.80;70.30;;;;;;5041282;27;81947;-47
2024/03/23 02:22:35;;;;;;;;;;;8.80;70.30;;;;;;5037134;28;82645;-47
2024/03/23 02:25:02;;;;;;;;;;;8.80;70.30;;;;;;5032913;28;84394;-46
2024/03/23 02:27:28;;;;;;;;;;;8.80;70.30;;;;;;5041324;28;82649;-47
2024/03/23 02:29:53;;;;;;;;;;;8.70;70.30;;;;;;5040131;27;81892;-48
2024/03/23 02:32:19;;;;;;;;;;;8.80;70.30;;;;;;5040849;28;83630;-48
2024/03/23 02:34:44;;;;;;;;;;;8.70;70.40;;;;;;5041477;28;81956;-48
2024/03/23 02:37:11;;;;;;;;;;;8.70;70.30;;;;;;5037136;28;81953;-47
2024/03/23 02:39:37;;;;;;;;;;;8.70;70.40;;;;;;5040915;28;82215;-48
2024/03/23 02:42:02;;;;;;;;;;;8.70;70.40;;;;;;5035483;28;81968;-48
2024/03/23 02:44:28;;;;;;;;;;;8.70;70.30;;;;;;5037846;28;82623;-48
2024/03/23 02:46:53;;;;;;;;;;;8.70;70.30;;;;;;5034746;28;81940;-48
2024/03/23 02:49:21;;;;;;;;;;;8.60;70.30;;;;;;5038781;28;82817;-47
2024/03/23 02:51:48;;;;;;;;;;;8.60;70.30;;;;;;5031979;28;83676;-46
2024/03/23 02:54:14;;;;;;;;;;;8.60;70.40;;;;;;5039632;28;81947;-47
2024/03/23 02:56:39;;;;;;;;;;;8.60;70.30;;;;;;5037094;27;82234;-46
2024/03/23 02:59:05;;;;;;;;;;;8.60;70.30;;;;;;5036039;27;82411;-47
2024/03/23 03:01:30;;;;;;;;;;;8.60;70.40;;;;;;5040810;28;81999;-47
2024/03/23 03:03:56;;;;;;;;;;;8.60;70.40;;;;;;5034596;28;82611;-46
2024/03/23 03:06:28;;;;;;;;;;;8.60;70.40;;;;;;5033927;28;81240;-47
2024/03/23 03:08:53;;;;;;;;;;;8.50;70.40;;;;;;5034235;28;82247;-47
2024/03/23 03:11:19;;;;;;;;;;;8.50;70.30;;;;;;5038637;28;82421;-47
2024/03/23 03:13:45;;;;;;;;;;;8.50;70.40;;;;;;5035416;28;82953;-47
2024/03/23 03:16:10;;;;;;;;;;;8.50;70.30;;;;;;5035756;28;82446;-47
2024/03/23 03:18:36;;;;;;;;;;;8.50;70.50;;;;;;5029481;28;82557;-48
2024/03/23 03:21:02;;;;;;;;;;;8.50;70.30;;;;;;5034911;28;81970;-47
2024/03/23 03:23:28;;;;;;;;;;;8.50;70.30;;;;;;5038693;28;81960;-48
2024/03/23 03:25:54;;;;;;;;;;;8.50;70.30;;;;;;5035532;27;81956;-47
2024/03/23 03:28:19;;;;;;;;;;;8.40;70.30;;;;;;5048419;28;81929;-47
2024/03/23 03:30:45;;;;;;;;;;;8.40;70.30;;;;;;5045543;27;83201;-47
2024/03/23 03:33:11;;;;;;;;;;;8.40;70.30;;;;;;5047054;28;82816;-46
2024/03/23 03:35:37;;;;;;;;;;;8.40;70.40;;;;;;5046903;28;81956;-47
2024/03/23 03:38:04;;;;;;;;;;;8.40;70.40;;;;;;5043895;28;83656;-46
2024/03/23 03:40:30;;;;;;;;;;;8.40;70.60;;;;;;5047955;27;81966;-47
2024/03/23 03:42:55;;;;;;;;;;;8.30;70.50;;;;;;5047231;27;82856;-46
2024/03/23 03:45:21;;;;;;;;;;;8.30;70.60;;;;;;5047627;28;82555;-45
2024/03/23 03:47:46;;;;;;;;;;;8.30;70.50;;;;;;5046920;28;81938;-47
2024/03/23 03:50:12;;;;;;;;;;;8.30;70.50;;;;;;5047016;28;82313;-46
2024/03/23 03:52:37;;;;;;;;;;;8.30;70.50;;;;;;5046523;27;82090;-46
2024/03/23 03:55:03;;;;;;;;;;;8.30;70.50;;;;;;5048227;28;82305;-47
2024/03/23 03:57:29;;;;;;;;;;;8.20;70.50;;;;;;5047116;27;83559;-47
2024/03/23 03:59:54;;;;;;;;;;;8.20;70.50;;;;;;5047717;27;82111;-47
2024/03/23 04:02:20;;;;;;;;;;;8.20;70.50;;;;;;5047574;27;82833;-53
2024/03/23 04:04:45;;;;;;;;;;;8.20;70.50;;;;;;5046318;28;83580;-47
2024/03/23 04:07:11;;;;;;;;;;;8.20;70.60;;;;;;5050088;28;82290;-47
2024/03/23 04:09:36;;;;;;;;;;;8.20;70.60;;;;;;5047516;28;82453;-47
2024/03/23 04:12:02;;;;;;;;;;;8.20;70.50;;;;;;5045981;28;82039;-46
2024/03/23 04:14:28;;;;;;;;;;;8.20;70.60;;;;;;5045481;27;81817;-48
2024/03/23 04:16:53;;;;;;;;;;;8.10;70.60;;;;;;5043275;28;83619;-45
2024/03/23 04:19:19;;;;;;;;;;;8.10;70.80;;;;;;5047129;27;81022;-46
2024/03/23 04:21:45;;;;;;;;;;;8.10;70.70;;;;;;5050283;27;82104;-47
2024/03/23 04:24:10;;;;;;;;;;;8.00;70.80;;;;;;5050818;28;82649;-47
2024/03/23 04:26:45;;;;;;;;;;;8.10;70.90;;;;;;5050665;27;82875;-47
2024/03/23 04:29:12;;;;;;;;;;;8.10;70.70;;;;;;5048609;28;83524;-48
2024/03/23 04:31:38;;;;;;;;;;;8.00;71.00;;;;;;5050095;27;81907;-47
2024/03/23 04:34:04;;;;;;;;;;;8.00;71.00;;;;;;5047214;28;83404;-47
2024/03/23 04:36:29;;;;;;;;;;;8.00;71.00;;;;;;5049428;27;83611;-47
2024/03/23 04:38:56;;;;;;;;;;;8.00;70.90;;;;;;5049796;27;81870;-47
2024/03/23 04:41:22;;;;;;;;;;;8.00;70.90;;;;;;5050114;27;82044;-45
2024/03/23 04:43:47;;;;;;;;;;;7.90;71.10;;;;;;5047244;28;81577;-48
2024/03/23 04:46:13;;;;;;;;;;;7.90;71.00;;;;;;5050147;28;82681;-48
2024/03/23 04:48:38;;;;;;;;;;;7.90;71.10;;;;;;5051655;27;83136;-48
2024/03/23 04:51:04;;;;;;;;;;;7.90;71.10;;;;;;5048881;28;82936;-47
2024/03/23 04:53:29;;;;;;;;;;;7.90;71.10;;;;;;5050129;27;82706;-46
2024/03/23 04:55:55;;;;;;;;;;;7.90;71.20;;;;;;5050190;27;83523;-48
2024/03/23 04:58:22;;;;;;;;;;;7.90;71.20;;;;;;5050735;27;82033;-46
2024/03/23 05:00:47;;;;;;;;;;;7.90;71.10;;;;;;5047701;28;82056;-48
2024/03/23 05:03:13;;;;;;;;;;;7.90;71.10;;;;;;5049760;28;82556;-46
2024/03/23 05:05:39;;;;;;;;;;;7.90;71.10;;;;;;5048824;28;82772;-47
2024/03/23 05:08:04;;;;;;;;;;;7.90;71.10;;;;;;5047038;28;81309;-47
2024/03/23 05:10:32;;;;;;;;;;;7.80;71.20;;;;;;5052824;28;82526;-48
2024/03/23 05:12:58;;;;;;;;;;;7.80;71.10;;;;;;5050079;27;82856;-47
2024/03/23 05:15:23;;;;;;;;;;;7.80;71.00;;;;;;5046386;28;83465;-47
2024/03/23 05:17:49;;;;;;;;;;;7.80;71.10;;;;;;5043253;28;81981;-47
2024/03/23 05:20:14;;;;;;;;;;;7.80;71.10;;;;;;5046485;27;81987;-46
2024/03/23 05:22:40;;;;;;;;;;;7.80;71.20;;;;;;5044971;27;82334;-48
2024/03/23 05:25:05;;;;;;;;;;;7.80;71.00;;;;;;5049122;27;81961;-47
2024/03/23 05:27:33;;;;;;;;;;;7.80;71.00;;;;;;5048138;27;81950;-47
2024/03/23 05:29:58;;;;;;;;;;;7.80;71.00;;;;;;5049381;27;82491;-47
2024/03/23 05:32:24;;;;;;;;;;;7.80;71.10;;;;;;5052100;28;81746;-47
2024/03/23 05:34:55;;;;;;;;;;;7.80;71.10;;;;;;5050024;28;82838;-48
2024/03/23 05:37:21;;;;;;;;;;;7.80;71.00;;;;;;5047246;28;82297;-47
2024/03/23 05:39:49;;;;;;;;;;;7.70;70.90;;;;;;5047440;28;83382;-56
2024/03/23 05:42:15;;;;;;;;;;;7.70;71.10;;;;;;5049465;27;82540;-51
2024/03/23 05:44:42;;;;;;;;;;;7.70;71.00;;;;;;5049840;27;82913;-47
2024/03/23 05:47:08;;;;;;;;;;;7.70;71.00;;;;;;5049532;27;82040;-48
2024/03/23 05:49:33;;;;;;;;;;;7.70;71.00;;;;;;5049414;27;83672;-47
2024/03/23 05:52:02;;;;;;;;;;;7.70;70.90;;;;;;5049655;28;82010;-47
2024/03/23 05:54:27;;;;;;;;;;;7.70;70.90;;;;;;5051420;27;82001;-46
2024/03/23 05:56:56;;;;;;;;;;;7.80;70.90;;;;;;5050275;28;81246;-47
2024/03/23 05:59:21;;;;;;;;;;;7.80;70.80;;;;;;5048044;28;82236;-46
2024/03/23 06:01:47;;;;;;;;;;;7.70;70.90;;;;;;5049365;28;82717;-48
2024/03/23 06:04:13;;;;;;;;;;;7.70;70.90;;;;;;5045174;27;82920;-47
2024/03/23 06:06:42;;;;;;;;;;;7.70;71.00;;;;;;5047816;27;83661;-47
2024/03/23 06:09:07;;;;;;;;;;;7.70;70.90;;;;;;5046837;28;83853;-48
2024/03/23 06:11:33;;;;;;;;;;;7.70;70.90;;;;;;5046937;28;81932;-48
2024/03/23 06:13:58;;;;;;;;;;;7.70;70.90;;;;;;5047880;28;82405;-48
2024/03/23 06:16:24;;;;;;;;;;;7.70;71.00;;;;;;5051096;27;82635;-46
2024/03/23 06:18:50;;;;;;;;;;;7.70;71.00;;;;;;5047245;28;82016;-46
2024/03/23 06:21:16;;;;;;;;;;;7.80;70.90;;;;;;5048331;27;81902;-47
2024/03/23 06:23:42;;;;;;;;;;;7.70;70.90;;;;;;5047056;27;82739;-46
2024/03/23 06:26:08;;;;;;;;;;;7.70;71.00;;;;;;5048087;27;81946;-46
2024/03/23 06:28:34;;;;;;;;;;;7.70;70.90;;;;;;5045904;27;84507;-47
2024/03/23 06:30:59;;;;;;;;;;;7.70;71.00;;;;;;5048939;27;81862;-47
2024/03/23 06:33:25;;;;;;;;;;;7.70;71.00;;;;;;5046704;28;82241;-46
2024/03/23 06:35:52;;;;;;;;;;;7.70;71.10;;;;;;5048174;27;82223;-47
2024/03/23 06:38:17;;;;;;;;;;;7.60;71.00;;;;;;5045152;28;82920;-46
2024/03/23 06:40:47;;;;;;;;;;;7.70;71.20;;;;;;5045909;28;82449;-47
2024/03/23 06:43:15;;;;;;;;;;;7.60;71.10;;;;;;5047780;27;81936;-47
2024/03/23 06:45:41;;;;;;;;;;;7.70;71.20;;;;;;5047900;27;82175;-47
2024/03/23 06:48:07;;;;;;;;;;;7.70;71.20;;;;;;5043553;28;83102;-46
2024/03/23 06:50:33;;;;;;;;;;;7.70;71.10;;;;;;5045796;27;82038;-47
2024/03/23 06:52:59;;;;;;;;;;;7.70;71.00;;;;;;5047283;27;82795;-46
2024/03/23 06:55:26;;;;;;;;;;;7.60;71.10;;;;;;5042470;27;82368;-47
2024/03/23 06:57:52;;;;;;;;;;;7.70;71.20;;;;;;5050845;27;82670;-46
2024/03/23 07:00:17;;;;;;;;;;;7.60;71.90;;;;;;5044926;28;82491;-48
2024/03/23 07:02:44;;;;;;;;;;;7.60;71.30;;;;;;5047770;27;81996;-47
2024/03/23 07:05:10;;;;;;;;;;;7.60;71.30;;;;;;5042025;27;82049;-46
2024/03/23 07:07:36;;;;;;;;;;;7.60;71.20;;;;;;5044524;28;82427;-46
2024/03/23 07:10:02;;;;;;;;;;;7.60;71.40;;;;;;5045275;28;81299;-48
2024/03/23 07:12:28;;;;;;;;;;;7.60;71.50;;;;;;5047983;28;82048;-47
2024/03/23 07:14:53;;;;;;;;;;;7.60;71.70;;;;;;5047172;28;82940;-47
2024/03/23 07:17:19;;;;;;;;;;;7.60;71.70;;;;;;5047049;28;82960;-46
2024/03/23 07:19:44;;;;;;;;;;;7.60;71.70;;;;;;5048405;27;83791;-47
2024/03/23 07:22:10;;;;;;;;;;;7.60;71.80;;;;;;5046356;28;82200;-47
2024/03/23 07:24:36;;;;;;;;;;;7.60;71.90;;;;;;5046268;28;82165;-47
2024/03/23 07:27:03;;;;;;;;;;;7.60;72.00;;;;;;5044196;27;83491;-45
2024/03/23 07:29:28;;;;;;;;;;;7.60;71.90;;;;;;5047280;28;82654;-48
2024/03/23 07:31:54;;;;;;;;;;;7.60;71.90;;;;;;5047563;28;82289;-46
2024/03/23 07:34:20;;;;;;;;;;;7.60;72.00;;;;;;5046505;28;81461;-47
2024/03/23 07:36:45;;;;;;;;;;;7.60;72.10;;;;;;5044735;27;82034;-47
2024/03/23 07:39:11;;;;;;;;;;;7.60;72.00;;;;;;5045620;28;82445;-47
2024/03/23 07:41:37;;;;;;;;;;;7.50;72.10;;;;;;5049637;27;83381;-47
2024/03/23 07:44:02;;;;;;;;;;;7.60;72.20;;;;;;5047828;27;82711;-47
2024/03/23 07:46:28;;;;;;;;;;;7.50;72.20;;;;;;5047517;27;82341;-47
2024/03/23 07:48:54;;;;;;;;;;;7.50;72.20;;;;;;5044049;27;82112;-46
2024/03/23 07:51:22;;;;;;;;;;;7.60;72.30;;;;;;5046371;28;81906;-46
2024/03/23 07:53:48;;;;;;;;;;;7.60;72.30;;;;;;5042225;28;82124;-46
2024/03/23 07:56:18;;;;;;;;;;;7.60;72.30;;;;;;5047990;28;82710;-46
2024/03/23 07:58:45;;;;;;;;;;;7.50;72.40;;;;;;5051268;27;81968;-46
2024/03/23 08:01:11;;;;;;;;;;;7.50;72.30;;;;;;5048387;27;83436;-46
2024/03/23 08:03:37;;;;;;;;;;;7.60;72.40;;;;;;5053772;28;82536;-47
2024/03/23 08:06:10;;;;;;;;;;;7.60;72.40;;;;;;5049999;27;83395;-47
2024/03/23 08:08:36;;;;;;;;;;;7.60;72.50;;;;;;5049884;27;81820;-47
2024/03/23 08:11:01;;;;;;;;;;;7.60;72.50;;;;;;5049887;27;82322;-47
2024/03/23 08:13:27;;;;;;;;;;;7.60;72.50;;;;;;5049100;27;82433;-46
2024/03/23 08:15:56;;;;;;;;;;;7.60;72.50;;;;;;5051056;28;81872;-47
2024/03/23 08:18:21;;;;;;;;;;;7.60;72.50;;;;;;5046966;28;82033;-45
2024/03/23 08:20:47;;;;;;;;;;;7.60;72.50;;;;;;5046962;28;82043;-46
2024/03/23 08:23:12;;;;;;;;;;;7.60;72.50;;;;;;5051130;27;81276;-47
2024/03/23 08:25:38;;;;;;;;;;;7.60;72.50;;;;;;5051671;28;81994;-46
2024/03/23 08:28:04;;;;;;;;;;;7.60;72.50;;;;;;5047054;28;82084;-47
2024/03/23 08:30:29;;;;;;;;;;;7.60;72.50;;;;;;5050242;27;82878;-47
2024/03/23 08:32:55;;;;;;;;;;;7.60;72.50;;;;;;5047811;27;83301;-45
2024/03/23 08:35:21;;;;;;;;;;;7.60;72.50;;;;;;5047268;28;82083;-47
2024/03/23 08:37:46;;;;;;;;;;;7.60;72.40;;;;;;5044120;27;83063;-48
2024/03/23 08:40:12;;;;;;;;;;;7.60;72.40;;;;;;5047618;28;83443;-47
2024/03/23 08:42:37;;;;;;;;;;;7.70;72.50;;;;;;5048442;28;82013;-47
2024/03/23 08:45:03;;;;;;;;;;;7.60;72.40;;;;;;5051093;27;82985;-47
2024/03/23 08:47:29;;;;;;;;;;;7.60;72.50;;;;;;5047617;28;81823;-47
2024/03/23 08:49:55;;;;;;;;;;;7.60;72.50;;;;;;5050762;28;82152;-46
2024/03/23 08:52:22;;;;;;;;;;;7.60;72.50;;;;;;5051024;27;82424;-48
2024/03/23 08:54:48;;;;;;;;;;;7.60;72.50;;;;;;5045955;28;82849;-46
2024/03/23 08:57:14;;;;;;;;;;;7.70;72.50;;;;;;5049725;28;82656;-48
2024/03/23 08:59:39;;;;;;;;;;;7.70;72.60;;;;;;5048490;27;82311;-46
2024/03/23 09:02:05;;;;;;;;;;;7.60;72.50;;;;;;5050233;27;81909;-46
2024/03/23 09:04:31;;;;;;;;;;;7.70;72.60;;;;;;5050395;27;82100;-46
2024/03/23 09:06:58;;;;;;;;;;;7.70;72.70;;;;;;5051710;28;82977;-45
2024/03/23 09:09:24;;;;;;;;;;;7.70;72.70;;;;;;5050194;27;82858;-46
2024/03/23 09:11:49;;;;;;;;;;;7.70;72.70;;;;;;5044740;27;82867;-47
2024/03/23 09:14:15;;;;;;;;;;;7.70;72.70;;;;;;5049209;28;81938;-47
2024/03/23 09:16:41;;;;;;;;;;;7.70;72.70;;;;;;5047778;28;82184;-47
2024/03/23 09:19:06;;;;;;;;;;;7.70;72.70;;;;;;5047699;28;83081;-47
2024/03/23 09:21:32;;;;;;;;;;;7.70;72.70;;;;;;5043645;28;81915;-47
2024/03/23 09:23:57;;;;;;;;;;;7.70;72.70;;;;;;5050132;28;81943;-46
2024/03/23 09:26:23;;;;;;;;;;;7.70;72.70;;;;;;5047531;28;82677;-45
2024/03/23 09:28:49;;;;;;;;;;;7.70;72.80;;;;;;5052833;27;82030;-47
2024/03/23 09:31:15;;;;;;;;;;;7.80;72.80;;;;;;5050437;27;82392;-47
2024/03/23 09:33:40;;;;;;;;;;;7.80;72.80;;;;;;5049522;27;82143;-47
2024/03/23 09:36:07;;;;;;;;;;;7.70;72.80;;;;;;5047657;28;81340;-46
2024/03/23 09:38:32;;;;;;;;;;;7.80;72.80;;;;;;5046094;27;82730;-47
2024/03/23 09:40:59;;;;;;;;;;;7.80;72.80;;;;;;5047367;27;82064;-46
2024/03/23 09:43:25;;;;;;;;;;;7.80;72.90;;;;;;5048590;27;83695;-46
2024/03/23 09:45:50;;;;;;;;;;;7.90;72.90;;;;;;5041696;27;82391;-47
2024/03/23 09:48:16;;;;;;;;;;;7.80;72.80;;;;;;5047955;27;82116;-47
2024/03/23 09:50:42;;;;;;;;;;;7.80;72.80;;;;;;5052096;28;81953;-47
2024/03/23 09:53:09;;;;;;;;;;;7.90;72.90;;;;;;5048169;28;82060;-47
2024/03/23 09:55:37;;;;;;;;;;;7.90;72.80;;;;;;5046182;27;82101;-46
2024/03/23 09:58:04;;;;;;;;;;;7.90;72.80;;;;;;5045833;28;82580;-45
2024/03/23 10:00:30;;;;;;;;;;;7.90;72.90;;;;;;5048280;28;81722;-47
2024/03/23 10:02:58;;;;;;;;;;;7.90;72.90;;;;;;5042793;27;82315;-47
2024/03/23 10:05:24;;;;;;;;;;;8.00;72.90;;;;;;5044082;28;82467;-45
2024/03/23 10:07:52;;;;;;;;;;;8.00;73.00;;;;;;5048681;27;83226;-49
2024/03/23 10:10:18;;;;;;;;;;;8.00;73.00;;;;;;5047669;27;81985;-46
2024/03/23 10:12:47;;;;;;;;;;;8.00;73.00;;;;;;5046902;27;82729;-48
2024/03/23 10:15:18;;;;;;;;;;;8.00;73.00;;;;;;5048470;28;81948;-47
2024/03/23 10:17:44;;;;;;;;;;;8.00;73.00;;;;;;5046329;27;82885;-47
2024/03/23 10:20:11;;;;;;;;;;;8.00;73.00;;;;;;5044836;28;83138;-46
2024/03/23 10:22:38;;;;;;;;;;;8.00;73.00;;;;;;5045840;28;82246;-47
2024/03/23 10:25:08;;;;;;;;;;;8.10;73.00;;;;;;5048930;27;82800;-47
2024/03/23 10:27:33;;;;;;;;;;;8.10;73.00;;;;;;5046064;27;82048;-47
2024/03/23 10:30:07;;;;;;;;;;;8.10;73.00;;;;;;5045466;27;81868;-48
2024/03/23 10:32:33;;;;;;;;;;;8.10;73.00;;;;;;5037980;28;83933;-51
2024/03/23 10:35:13;;;;;;;;;;;8.20;73.10;;;;;;5047390;27;82237;-50
2024/03/23 10:37:39;;;;;;;;;;;8.20;73.10;;;;;;5047255;28;82567;-47
2024/03/23 10:40:05;;;;;;;;;;;8.20;73.00;;;;;;5048140;27;81911;-48
2024/03/23 10:42:32;;;;;;;;;;;8.20;73.00;;;;;;5039903;28;82021;-47
2024/03/23 10:44:58;;;;;;;;;;;8.20;73.00;;;;;;5045266;27;82460;-47
2024/03/23 10:47:23;;;;;;;;;;;8.20;73.00;;;;;;5048635;27;81965;-47
2024/03/23 10:49:49;;;;;;;;;;;8.30;73.10;;;;;;5048850;28;82634;-46
2024/03/23 10:52:14;;;;;;;;;;;8.30;73.10;;;;;;5048568;28;82569;-47
2024/03/23 10:54:41;;;;;;;;;;;8.30;73.10;;;;;;5050735;27;82331;-46
2024/03/23 10:57:12;;;;;;;;;;;8.30;73.10;;;;;;5045522;27;84449;-47
2024/03/23 10:59:39;;;;;;;;;;;8.30;73.20;;;;;;5048168;27;81987;-47
2024/03/23 11:02:04;;;;;;;;;;;8.40;73.20;;;;;;5045115;27;81982;-48
2024/03/23 11:04:34;;;;;;;;;;;8.40;73.30;;;;;;5046038;27;82346;-47
2024/03/23 11:07:00;;;;;;;;;;;8.40;73.30;;;;;;5047433;27;82647;-47
2024/03/23 11:09:34;;;;;;;;;;;8.40;73.20;;;;;;5046901;27;82087;-46
2024/03/23 11:12:17;;;;;;;;;;;8.40;73.30;;;;;;5044651;28;81941;-47
2024/03/23 11:14:43;;;;;;;;;;;8.50;73.40;;;;;;5045272;28;82196;-48
2024/03/23 11:17:09;;;;;;;;;;;8.50;73.40;;;;;;5049983;28;82142;-46
2024/03/23 11:19:34;;;;;;;;;;;8.50;73.40;;;;;;5045437;27;81902;-46
2024/03/23 11:22:01;;;;;;;;;;;8.50;73.40;;;;;;5046092;28;82902;-47
2024/03/23 11:24:27;;;;;;;;;;;8.50;73.40;;;;;;5044749;27;82328;-46
2024/03/23 11:26:53;;;;;;;;;;;8.60;73.50;;;;;;5047706;27;82207;-47
2024/03/23 11:29:18;;;;;;;;;;;8.60;73.50;;;;;;5047215;28;81960;-47
2024/03/23 11:31:47;;;;;;;;;;;8.60;73.50;;;;;;5046652;27;82835;-46
2024/03/23 11:34:13;;;;;;;;;;;8.60;73.50;;;;;;5048015;27;82564;-46
2024/03/23 11:36:38;;;;;;;;;;;8.70;73.50;;;;;;5047466;27;82890;-47
2024/03/23 11:39:18;;;;;;;;;;;8.70;73.40;;;;;;5049019;28;82905;-47
2024/03/23 11:41:47;;;;;;;;;;;8.70;73.40;;;;;;5044263;28;81846;-46
2024/03/23 11:44:16;;;;;;;;;;;8.70;73.60;;;;;;5043739;27;82637;-46
2024/03/23 11:46:42;;;;;;;;;;;8.80;73.50;;;;;;5045491;27;82885;-47
2024/03/23 11:49:19;;;;;;;;;;;8.80;73.60;;;;;;5045698;28;82607;-47
2024/03/23 11:51:45;;;;;;;;;;;8.80;73.60;;;;;;5046905;28;82061;-48
2024/03/23 11:54:10;;;;;;;;;;;8.80;73.60;;;;;;5047799;27;81940;-47
2024/03/23 11:56:36;;;;;;;;;;;8.80;73.60;;;;;;5045013;27;82005;-48
2024/03/23 11:59:01;;;;;;;;;;;8.90;73.60;;;;;;5044302;28;82322;-47
2024/03/23 12:01:27;;;;;;;;;;;8.90;73.70;;;;;;5049643;27;82077;-47
2024/03/23 12:03:52;;;;;;;;;;;8.90;73.60;;;;;;5048450;28;81760;-47
2024/03/23 12:06:19;;;;;;;;;;;8.90;73.60;;;;;;5047449;28;81935;-48
2024/03/23 12:08:45;;;;;;;;;;;9.00;73.70;;;;;;5047655;27;81854;-47
2024/03/23 12:11:11;;;;;;;;;;;9.00;73.70;;;;;;5042578;27;83006;-47
2024/03/23 12:13:37;;;;;;;;;;;9.00;73.70;;;;;;5046607;27;81958;-47
2024/03/23 12:16:13;;;;;;;;;;;9.00;73.70;;;;;;5046896;27;82919;-48
2024/03/23 12:18:40;;;;;;;;;;;9.00;73.70;;;;;;5046249;27;83475;-47
2024/03/23 12:21:05;;;;;;;;;;;9.10;73.70;;;;;;5045920;27;82855;-47
2024/03/23 12:23:32;;;;;;;;;;;9.10;73.70;;;;;;5048581;27;82000;-47
2024/03/23 12:25:57;;;;;;;;;;;9.10;73.70;;;;;;5042769;27;82274;-48
2024/03/23 12:28:23;;;;;;;;;;;9.20;73.70;;;;;;5047033;28;81879;-47
2024/03/23 12:30:49;;;;;;;;;;;9.20;73.70;;;;;;5047026;28;81863;-47
2024/03/23 12:33:14;;;;;;;;;;;9.20;73.60;;;;;;5046508;27;82719;-47
2024/03/23 12:35:40;;;;;;;;;;;9.20;73.60;;;;;;5046589;27;83461;-47
2024/03/23 12:38:05;;;;;;;;;;;9.30;73.60;;;;;;5044320;27;82445;-47
2024/03/23 12:40:31;;;;;;;;;;;9.30;73.50;;;;;;5043763;27;81943;-47
2024/03/23 12:42:56;;;;;;;;;;;9.30;73.70;;;;;;5049023;28;81945;-48
2024/03/23 12:45:22;;;;;;;;;;;9.30;73.60;;;;;;5047390;28;81895;-47
2024/03/23 12:47:48;;;;;;;;;;;9.40;73.60;;;;;;5046395;28;81903;-46
2024/03/23 12:50:13;;;;;;;;;;;9.40;73.60;;;;;;5047314;27;82140;-47
2024/03/23 12:52:39;;;;;;;;;;;9.40;73.50;;;;;;5049967;28;81260;-48
2024/03/23 12:55:07;;;;;;;;;;;9.40;73.50;;;;;;5050177;27;82223;-48
2024/03/23 12:57:33;;;;;;;;;;;9.40;73.50;;;;;;5050339;27;82572;-48
2024/03/23 12:59:59;;;;;;;;;;;9.50;73.50;;;;;;5043664;27;83724;-48
2024/03/23 13:02:24;;;;;;;;;;;9.50;73.50;;;;;;5047172;27;83882;-46
2024/03/23 13:04:51;;;;;;;;;;;9.60;73.50;;;;;;5049704;28;82370;-47
2024/03/23 13:07:17;;;;;;;;;;;9.50;73.50;;;;;;5049552;27;81913;-47
2024/03/23 13:09:43;;;;;;;;;;;9.60;73.50;;;;;;5047470;27;82279;-48
2024/03/23 13:12:08;;;;;;;;;;;9.60;73.40;;;;;;5045039;28;82219;-47
2024/03/23 13:14:34;;;;;;;;;;;9.60;73.30;;;;;;5048677;27;82052;-47
2024/03/23 13:16:59;;;;;;;;;;;9.60;73.30;;;;;;5050658;27;81332;-48
2024/03/23 13:19:26;;;;;;;;;;;9.70;73.40;;;;;;5046461;27;82068;-46
2024/03/23 13:21:55;;;;;;;;;;;9.70;73.30;;;;;;5044726;28;82243;-47
2024/03/23 13:24:28;;;;;;;;;;;9.70;73.30;;;;;;5047314;28;84436;-47
2024/03/23 13:26:55;;;;;;;;;;;9.80;73.30;;;;;;5049072;28;82009;-46
2024/03/23 13:29:22;;;;;;;;;;;9.80;73.20;;;;;;5047362;28;82484;-47
2024/03/23 13:31:47;;;;;;;;;;;9.80;73.30;;;;;;5046416;27;81979;-47
2024/03/23 13:34:15;;;;;;;;;;;9.90;73.30;;;;;;5048494;28;82744;-47
2024/03/23 13:36:44;;;;;;;;;;;9.90;73.30;;;;;;5048985;28;82672;-46
2024/03/23 13:39:12;;;;;;;;;;;9.90;73.30;;;;;;5047390;27;82225;-47
2024/03/23 13:41:39;;;;;;;;;;;10.00;73.30;;;;;;5048740;27;81692;-48
2024/03/23 13:44:08;;;;;;;;;;;10.00;73.30;;;;;;5045331;27;83448;-48
2024/03/23 13:46:34;;;;;;;;;;;10.00;73.30;;;;;;5047743;28;82100;-47
2024/03/23 13:49:00;;;;;;;;;;;10.10;73.40;;;;;;5051472;27;83096;-48
2024/03/23 13:51:28;;;;;;;;;;;10.10;73.30;;;;;;5046488;27;81922;-46
2024/03/23 13:53:54;;;;;;;;;;;10.20;73.30;;;;;;5043590;28;82342;-47
2024/03/23 13:56:20;;;;;;;;;;;10.20;73.30;;;;;;5046285;28;83646;-46
2024/03/23 13:58:46;;;;;;;;;;;10.20;73.30;;;;;;5048025;28;82092;-47
2024/03/23 14:01:13;;;;;;;;;;;10.30;73.30;;;;;;5048905;28;83342;-47
2024/03/23 14:03:38;;;;;;;;;;;10.30;73.20;;;;;;5048242;27;82297;-47
2024/03/23 14:06:04;;;;;;;;;;;10.30;73.30;;;;;;5048465;27;81736;-47
2024/03/23 14:08:32;;;;;;;;;;;10.40;73.40;;;;;;5049227;27;81979;-47
2024/03/23 14:10:58;;;;;;;;;;;10.40;73.50;;;;;;5050143;27;82417;-46
2024/03/23 14:13:24;;;;;;;;;;;10.40;73.60;;;;;;5042227;27;83458;-47
2024/03/23 14:15:53;;;;;;;;;;;10.40;73.50;;;;;;5047903;27;82902;-47
2024/03/23 14:18:18;;;;;;;;;;;10.50;73.40;;;;;;5049167;27;81943;-47
2024/03/23 14:20:44;;;;;;;;;;;10.50;73.30;;;;;;5049164;28;82093;-47
2024/03/23 14:23:09;;;;;;;;;;;10.50;73.40;;;;;;5047013;27;83423;-47